Calahorra, Spain
Current Conditions -  °F | °C
As of 11:00 PM on Wednesday 22 Oct 2014 (Local Time) from LELO Reporting Station
Clear Clear  
Wind Chill: 52°   Ceiling: Unl
Heat Index: 52°   Visibility: 6mi
Dew Point: 45°   Wind: 3mph
Humidity: 76%   Direction: 280°W
Pressure: 30.39"   Gusts: NA
Location:  42.3°N, 1.97°W
Report Text: LELO 222100Z 28003KT CAVOK 11/07 Q1029
Loading
Personal Weather Stations






























Interactive Weather Map
Tropical Storm Tracking
New forecast layout! Learn more

10-Day Weather Forecast

Advertisements
Track Severe Weather on mobile